Flight Track Log - Related Links

Times and Time Zones

All times are in EDT time to prevent confusion due to time zone crossing. See the CTL22 flight status page for this flight to view local times or setup timezone preferences in your user account.

Time Position Orientation Groundspeed Altitude Reporting Facility
EDT Latitude Longitude Course Direction KTS MPH feet Rate Location/Type
Tue 09:57:02 PM 42.3147 -83.5575 297° West 150 173 6,000  Level FAA TRACON SMA TRACON (SMA)
Tue 09:57:22 PM 42.3200 -83.5733 294° West 149 171 6,000  Level FAA TRACON SMA TRACON (SMA)
Tue 09:57:41 PM 42.3250 -83.5892 293° West 149 171 6,000  Level FAA TRACON SMA TRACON (SMA)
Tue 09:58:02 PM 42.3317 -83.6089 295° West 151 174 6,000  Level FAA TRACON SMA TRACON (SMA)
Tue 09:58:21 PM 42.3372 -83.6247 295° West 150 173 6,000  Level FAA TRACON SMA TRACON (SMA)
Tue 09:58:41 PM 42.3428 -83.6406 295° West 152 175 6,000  Level FAA TRACON SMA TRACON (SMA)
Tue 09:59:01 PM 42.3494 -83.6606 294° West 151 174 6,000  Level FAA TRACON SMA TRACON (SMA)
Tue 09:59:21 PM 42.3547 -83.6764 294° West 151 174 6,000  Level FAA TRACON SMA TRACON (SMA)
Tue 09:59:42 PM 42.3597 -83.6925 293° West 151 174 6,000  Level FAA TRACON SMA TRACON (SMA)
Tue 10:00:01 PM 42.3664 -83.7128 294° West 152 175 6,000  Level FAA TRACON SMA TRACON (SMA)
Tue 10:00:22 PM 42.3717 -83.7289 294° West 152 175 6,000  Level FAA TRACON SMA TRACON (SMA)
Tue 10:00:41 PM 42.3769 -83.7450 294° West 152 175 6,000  Level FAA TRACON SMA TRACON (SMA)
Tue 10:01:01 PM 42.3836 -83.7653 294° West 153 176 6,000  Level FAA TRACON SMA TRACON (SMA)
Tue 10:01:21 PM 42.3889 -83.7814 294° West 153 176 6,000  Level FAA TRACON SMA TRACON (SMA)
Tue 10:01:42 PM 42.3944 -83.7972 295° West 152 175 6,000  Level FAA TRACON SMA TRACON (SMA)
Tue 10:02:00 PM 42.3034 -83.8318 297° West  Level Estimated
Tue 10:02:03 PM 42.4019 -83.8167 298° West 152 175 6,000  Level FAA TRACON SMA TRACON (SMA)
Tue 10:02:21 PM 42.4086 -83.8319 301° West 153 176 6,000  Level FAA TRACON SMA TRACON (SMA)
Tue 10:02:41 PM 42.4153 -83.8469 301° West 152 175 6,000  Level FAA TRACON SMA TRACON (SMA)
Tue 10:03:02 PM 42.4233 -83.8661 300° West 152 175 6,000  Level FAA TRACON SMA TRACON (SMA)
Tue 10:03:21 PM 42.4297 -83.8814 300° West 152 175 6,000  Level FAA TRACON SMA TRACON (SMA)
Tue 10:03:42 PM 42.4342 -83.8981 290° West 154 177 6,000  Level FAA TRACON SMA TRACON (SMA)
Tue 10:04:01 PM 42.4406 -83.9181 293° West 151 174 6,000  Level FAA TRACON SMA TRACON (SMA)
Tue 10:04:42 PM 42.4514 -83.9525 293° West 153 176 6,000  Level FAA TRACON SMA TRACON (SMA)
Tue 10:05:01 PM 42.4561 -83.9692 291° West 152 175 6,000  Level FAA TRACON SMA TRACON (SMA)
Tue 10:05:22 PM 42.4619 -83.9897 291° West 152 175 6,000  Level FAA TRACON SMA TRACON (SMA)
Tue 10:05:41 PM 42.4672 -84.0058 294° West 153 176 6,000  Level FAA TRACON SMA TRACON (SMA)
Tue 10:06:01 PM 42.4725 -84.0222 294° West 153 176 6,000  Level FAA TRACON SMA TRACON (SMA)
Tue 10:06:21 PM 42.4781 -84.0433 290° West 154 177 6,000  Level FAA TRACON SMA TRACON (SMA)
Tue 10:06:41 PM 42.4822 -84.0606 288° West 155 178 6,000  Level FAA TRACON SMA TRACON (SMA)
Tue 10:07:02 PM 42.4864 -84.0775 288° West 154 177 6,000  Level FAA TRACON SMA TRACON (SMA)
Tue 10:07:21 PM 42.4925 -84.0986 291° West 155 178 6,000  Level FAA TRACON SMA TRACON (SMA)
Tue 10:07:42 PM 42.4972 -84.1153 291° West 154 177 6,000  Level FAA TRACON SMA TRACON (SMA)
Tue 10:08:01 PM 42.5014 -84.1325 288° West 155 178 6,000  Level FAA TRACON SMA TRACON (SMA)
Tue 10:08:21 PM 42.5056 -84.1494 288° West 156 180 6,000  Level FAA TRACON SMA TRACON (SMA)
Tue 10:08:42 PM 42.5111 -84.1708 289° West 155 178 6,000  Level FAA TRACON SMA TRACON (SMA)
Tue 10:09:01 PM 42.5158 -84.1878 291° West 155 178 6,000  Level FAA TRACON SMA TRACON (SMA)
Tue 10:09:22 PM 42.5222 -84.2081 293° West 154 177 6,000  Level FAA TRACON SMA TRACON (SMA)
Tue 10:09:41 PM 42.5269 -84.2247 291° West 154 177 6,000  Level FAA TRACON SMA TRACON (SMA)
Tue 10:10:02 PM 42.5322 -84.2411 294° West 155 178 6,000  Level FAA TRACON SMA TRACON (SMA)
Tue 10:10:21 PM 42.5394 -84.2617 295° West 155 178 6,000  Level FAA TRACON SMA TRACON (SMA)
Tue 10:10:41 PM 42.5458 -84.2778 298° West 156 180 6,000  Level FAA TRACON SMA TRACON (SMA)
Tue 10:11:02 PM 42.5514 -84.2942 295° West 156 180 6,000  Level FAA TRACON SMA TRACON (SMA)
Tue 10:11:21 PM 42.5583 -84.3150 294° West 156 180 6,000  Level FAA TRACON SMA TRACON (SMA)
Tue 10:11:42 PM 42.5644 -84.3311 297° West 156 180 6,000  Level FAA TRACON SMA TRACON (SMA)
Tue 10:12:01 PM 42.5708 -84.3472 298° West 157 181 6,000  Level FAA TRACON SMA TRACON (SMA)
Tue 10:12:21 PM 42.5769 -84.3636 297° West 157 181 6,000  Level FAA TRACON SMA TRACON (SMA)
Tue 10:12:42 PM 42.5853 -84.3831 300° West 156 180 6,000  Level FAA TRACON SMA TRACON (SMA)
Tue 10:13:01 PM 42.5919 -84.3986 300° West 155 178 6,000  Level FAA TRACON SMA TRACON (SMA)
Tue 10:13:22 PM 42.6003 -84.4183 300° West 156 180 6,000  Level FAA TRACON SMA TRACON (SMA)
Tue 10:13:41 PM 42.6033 -84.4264 297° West 156 180 6,000  Level FAA TRACON SMA TRACON (SMA)
Tue 10:14:02 PM 42.6033 -84.4264 14° North 156 180 6,000 53 Level FAA TRACON SMA TRACON (SMA)
Tue 10:15:34 PM 42.6317 -84.5306 290° West 158 182 6,100 39 Climbing Chicago Center
Tue 10:16:35 PM 42.6483 -84.5856 292° West 159 183 6,100  Level Chicago Center
Tue 10:17:37 PM 42.6575 -84.6411 283° West 155 178 6,100  Level Chicago Center
Tue 10:18:38 PM 42.6731 -84.7089 287° West 156 180 6,100  Level Chicago Center
Tue 10:19:39 PM 42.6861 -84.7658 287° West 158 182 6,100  Level Chicago Center
Tue 10:20:40 PM 42.6997 -84.8219 288° West 158 182 6,100  Level Chicago Center
Tue 10:21:41 PM 42.7119 -84.8789 286° West 158 182 6,100  Level Chicago Center
Tue 10:22:43 PM 42.7242 -84.9339 287° West 155 178 6,100  Level Chicago Center
Tue 10:23:44 PM 42.7369 -84.9892 287° West 153 176 6,100  Level Chicago Center
Tue 10:24:45 PM 42.7503 -85.0447 288° West 155 178 6,100  Level Chicago Center
Tue 10:25:46 PM 42.7706 -85.0942 299° West 152 175 6,100 -195 Level Chicago Center
Tue 10:26:48 PM 42.7878 -85.1506 293° West 158 182 5,700 -537 Descending Chicago Center
Tue 10:27:49 PM 42.8017 -85.2119 287° West 168 193 5,000 -1,033 Descending Chicago Center
Tue 10:28:50 PM 42.8211 -85.2922 288° West 183 211 3,600 -1,180 Descending Chicago Center
Tue 10:29:51 PM 42.8383 -85.3631 288° West 194 223 2,600 -878 Descending Chicago Center
Tue 10:30:53 PM 42.8558 -85.4281 290° West 190 219 1,800 -634 Descending Chicago Center
Tue 10:31:54 PM 42.8725 -85.4797 294° West 167 192 1,300 -492 Descending Chicago Center
Tue 10:32:55 PM 42.8833 -85.5172 292° West 129 148 800 -492 Descending Chicago Center
Tue 10:34:00 PM 42.8808 -85.5228 270° West  Level Estimated

Login

Don't have an account? Register now (free) for customized features, flight alerts, and more!